DSNT2: Lake Texoma, Denison Dam

Data processed at Sat Mar 10 2018 23:40


All information presented herein is the property of the government of the United States of America and may be revised or deleted at any time without prior notice.
Dissemination of this information without the expressed written consent of the Public Affairs Office, Tulsa District U.S. Army Corps of Engineers is strictly prohibited.
These data are gathered electronically and, as presented, have not undergone any form of quality control. These data are not guaranteed to be valid or correct.
Go to home page.
Go to station list.

Upstream stations:

Downstream station:
Previous Day
Next Day
Current Day
    
SHEF ID:       DSNT2     Lake Texoma, Denison Dam
STATION TYPE:  Reservoir
Normal Pool:  Bottom =   590.00, Top =   615.00

               PRECIP PRECIP(A) ELEVATION   STORAGE   TW-ELEV    INFLOW   RELEASE  AIR-TEMP  WIND-DIRWIND-SPEED REL-HUMID SOLAR-RAD   VOLTAGE  BAT-LOAD
                   in        in        ft     ac-ft        ft       cfs       cfs         F       deg       mph         %      W/m2      volt      volt
              Ccp-Rev   Ccp-Rev   Ccp-Rev   Ccp-Rev   Ccp-Rev  Regi-Rev  Regi-Rev   Ccp-Rev   Ccp-Rev   Ccp-Rev   Ccp-Rev   Ccp-Rev   Ccp-Rev   Ccp-Rev
(US/Central)
03/08 00:00      0.00      0.00    619.25   2665877    506.88         4     11033     40.42    139.50      1.07     69.53      0.00     12.97     12.65
03/08 01:00      0.00      0.00    619.25   2665877    506.88         4     11233     41.32    159.50      1.32     67.83      0.00     12.95     12.65
03/08 02:00      0.00      0.00    619.24   2665008    506.87         4     11032     41.76    180.80      0.39     64.65      0.00     12.94     12.60
03/08 03:00      0.00      0.00    619.23   2664138    506.89         4     11032     36.91    100.00      0.10     89.49      0.00     12.92     12.60
03/08 04:00      0.00      0.00    619.23   2664138    506.89         2     11032     38.01    131.70      1.19     87.54      0.00     12.91     12.60
03/08 05:00      0.00      0.00    619.22   2663269    506.89         2     11032     40.33    225.10      0.56     72.77      0.00     12.89     12.54
03/08 06:00      0.00      0.00    619.22   2663269    506.87         4     11032     39.78    153.00      2.88     68.25      0.00     12.89     12.54
03/08 07:00      0.00      0.00    619.20   2661530    506.89         2     11031     39.67     60.80      0.57     73.43     13.00     12.93     12.54
03/08 08:00      0.00      0.00    619.20   2661530    506.89         2     11031     41.76     42.60      0.16     75.88    194.00     13.75     12.60
03/08 09:00      0.00      0.00    619.19   2660661    506.89         2     11031     49.01     96.70      0.35     57.02    164.00     13.72     13.42
03/08 10:00      0.00      0.00    619.18   2659792    506.85         2     11030     54.73     70.40      0.60     33.03    635.00     13.79     13.59
03/08 11:00      0.00      0.00    619.17   2658922    506.86         0     11030     56.26    227.40      4.61     31.99    725.00     14.01     13.88
03/08 12:00      0.00      0.00    619.17   2658922    506.86         0     10930     59.67    216.80      7.36     27.90    912.00     13.75     14.18
03/08 13:00      0.00      0.00    619.16   2658053    506.86         0     11030     61.63    215.40      3.27     26.19    727.00     13.98     13.71
03/08 14:00      0.00      0.00    619.15   2657184    506.86         0     11029     63.50    174.60      5.23     26.07    593.00     14.05     13.77
03/08 15:00      0.00      0.00    619.13   2655445    506.88         0     11029     63.39    165.90      6.57     24.48    488.00     14.08     14.12
03/08 16:00      0.00      0.00    619.12   2654576    506.88         2     11028     63.41    188.80      8.46     24.18    363.00     13.75     13.65
03/08 17:00      0.00      0.00    619.11   2653706    506.87         2     11028     62.73    174.00      9.80     23.32    216.00     14.44     13.59
03/08 18:00      0.00      0.00    619.11   2653706    506.87         2     11028     61.32    154.10      5.88     27.84     76.00     13.17     13.07
03/08 19:00      0.00      0.00    619.11   2653706    506.89         2     11228     59.34    131.30      4.61     31.14      1.00     13.06     12.83
03/08 20:00      0.00      0.00    619.08   2651098    506.87         2     11027     57.15    135.00      7.94     34.43      0.00     13.03     12.71
03/08 21:00      0.00      0.00    619.08   2651098    506.86         0     11027     55.81    149.20      8.02     37.36      0.00     13.02     12.65
03/08 22:00      0.00      0.00    619.06   2649360    506.86         0     11027     55.17    158.90      6.44     39.38      0.00     13.01     12.65
03/08 23:00      0.00      0.00    619.06   2649360    506.86         0     10926     54.61    155.40      6.59     40.84      0.00     12.99     12.65